sensor_id;sensor_type;location;lat;lon;timestamp;pressure;altitude;pressure_sealevel;temperature;humidity
55066;BME280;40964;42.114;24.220;2022-07-26T00:01:30;97578.06;;;23.34;61.24
55066;BME280;40964;42.114;24.220;2022-07-26T00:03:55;97575.69;;;23.33;60.49
55066;BME280;40964;42.114;24.220;2022-07-26T00:06:21;97571.25;;;23.28;60.63
55066;BME280;40964;42.114;24.220;2022-07-26T00:08:47;97577.84;;;23.22;60.91
55066;BME280;40964;42.114;24.220;2022-07-26T00:11:14;97581.31;;;23.22;61.31
55066;BME280;40964;42.114;24.220;2022-07-26T00:13:40;97581.13;;;23.19;61.29
55066;BME280;40964;42.114;24.220;2022-07-26T00:16:06;97575.56;;;23.15;60.98
55066;BME280;40964;42.114;24.220;2022-07-26T00:18:31;97575.69;;;23.10;61.36
55066;BME280;40964;42.114;24.220;2022-07-26T00:20:57;97570.91;;;23.07;60.55
55066;BME280;40964;42.114;24.220;2022-07-26T00:23:23;97577.28;;;23.11;61.09
55066;BME280;40964;42.114;24.220;2022-07-26T00:25:49;97583.63;;;23.15;60.34
55066;BME280;40964;42.114;24.220;2022-07-26T00:28:14;97572.88;;;23.15;61.10
55066;BME280;40964;42.114;24.220;2022-07-26T00:30:40;97582.34;;;23.13;60.94
55066;BME280;40964;42.114;24.220;2022-07-26T00:33:06;97581.94;;;23.06;61.39
55066;BME280;40964;42.114;24.220;2022-07-26T00:35:32;97571.63;;;22.99;61.51
55066;BME280;40964;42.114;24.220;2022-07-26T00:37:58;97576.50;;;22.97;62.10
55066;BME280;40964;42.114;24.220;2022-07-26T00:40:24;97574.13;;;22.96;62.38
55066;BME280;40964;42.114;24.220;2022-07-26T00:42:50;97579.31;;;22.92;62.12
55066;BME280;40964;42.114;24.220;2022-07-26T00:45:16;97579.41;;;22.87;61.91
55066;BME280;40964;42.114;24.220;2022-07-26T00:47:41;97569.53;;;22.82;62.16
55066;BME280;40964;42.114;24.220;2022-07-26T00:50:10;97584.47;;;22.88;61.75
55066;BME280;40964;42.114;24.220;2022-07-26T00:52:36;97585.56;;;22.87;62.58
55066;BME280;40964;42.114;24.220;2022-07-26T00:55:04;97582.97;;;22.82;61.84
55066;BME280;40964;42.114;24.220;2022-07-26T00:57:31;97577.84;;;22.86;62.55
55066;BME280;40964;42.114;24.220;2022-07-26T00:59:57;97575.72;;;22.83;62.87
55066;BME280;40964;42.114;24.220;2022-07-26T01:02:25;97573.44;;;22.76;63.28
55066;BME280;40964;42.114;24.220;2022-07-26T01:04:51;97570.06;;;22.71;62.72
55066;BME280;40964;42.114;24.220;2022-07-26T01:07:16;97565.50;;;22.71;62.51
55066;BME280;40964;42.114;24.220;2022-07-26T01:09:43;97558.97;;;22.63;63.54
55066;BME280;40964;42.114;24.220;2022-07-26T01:12:09;97564.84;;;22.65;62.79
55066;BME280;40964;42.114;24.220;2022-07-26T01:14:34;97556.28;;;22.63;63.29
55066;BME280;40964;42.114;24.220;2022-07-26T01:17:00;97556.50;;;22.67;63.56
55066;BME280;40964;42.114;24.220;2022-07-26T01:19:25;97551.63;;;22.55;63.86
55066;BME280;40964;42.114;24.220;2022-07-26T01:21:51;97557.97;;;22.46;64.07
55066;BME280;40964;42.114;24.220;2022-07-26T01:24:17;97554.03;;;22.43;64.47
55066;BME280;40964;42.114;24.220;2022-07-26T01:26:43;97545.97;;;22.43;64.18
55066;BME280;40964;42.114;24.220;2022-07-26T01:29:09;97551.47;;;22.38;64.59
55066;BME280;40964;42.114;24.220;2022-07-26T01:31:35;97545.09;;;22.34;63.61
55066;BME280;40964;42.114;24.220;2022-07-26T01:34:01;97544.91;;;22.30;64.84
55066;BME280;40964;42.114;24.220;2022-07-26T01:36:26;97545.69;;;22.31;64.24
55066;BME280;40964;42.114;24.220;2022-07-26T01:38:52;97545.09;;;22.34;63.89
55066;BME280;40964;42.114;24.220;2022-07-26T01:41:18;97540.34;;;22.31;63.52
55066;BME280;40964;42.114;24.220;2022-07-26T01:43:43;97544.13;;;22.30;63.32
55066;BME280;40964;42.114;24.220;2022-07-26T01:46:09;97548.94;;;22.28;64.12
55066;BME280;40964;42.114;24.220;2022-07-26T01:48:35;97541.72;;;22.28;63.92
55066;BME280;40964;42.114;24.220;2022-07-26T01:51:01;97544.69;;;22.27;64.45
55066;BME280;40964;42.114;24.220;2022-07-26T01:53:27;97543.91;;;22.26;64.34
55066;BME280;40964;42.114;24.220;2022-07-26T01:55:53;97541.72;;;22.28;64.92
55066;BME280;40964;42.114;24.220;2022-07-26T01:58:19;97541.44;;;22.30;64.38
55066;BME280;40964;42.114;24.220;2022-07-26T02:00:48;97544.13;;;22.30;64.26
55066;BME280;40964;42.114;24.220;2022-07-26T02:03:14;97554.13;;;22.24;64.72
55066;BME280;40964;42.114;24.220;2022-07-26T02:05:39;97555.53;;;22.22;64.37
55066;BME280;40964;42.114;24.220;2022-07-26T02:08:05;97553.16;;;22.20;64.93
55066;BME280;40964;42.114;24.220;2022-07-26T02:10:31;97548.84;;;22.19;64.85
55066;BME280;40964;42.114;24.220;2022-07-26T02:13:15;97542.22;;;22.17;64.04
55066;BME280;40964;42.114;24.220;2022-07-26T02:15:41;97542.13;;;22.22;64.40
55066;BME280;40964;42.114;24.220;2022-07-26T02:18:07;97539.63;;;22.25;63.49
55066;BME280;40964;42.114;24.220;2022-07-26T02:20:33;97536.16;;;22.25;63.79
55066;BME280;40964;42.114;24.220;2022-07-26T02:23:02;97538.53;;;22.26;64.48
55066;BME280;40964;42.114;24.220;2022-07-26T02:25:29;97528.34;;;22.15;64.62
55066;BME280;40964;42.114;24.220;2022-07-26T02:27:54;97521.38;;;22.14;65.11
55066;BME280;40964;42.114;24.220;2022-07-26T02:30:20;97537.88;;;22.21;64.27
55066;BME280;40964;42.114;24.220;2022-07-26T02:32:45;97534.09;;;22.22;64.70
55066;BME280;40964;42.114;24.220;2022-07-26T02:35:12;97526.75;;;22.14;65.11
55066;BME280;40964;42.114;24.220;2022-07-26T02:37:38;97536.44;;;22.09;64.33
55066;BME280;40964;42.114;24.220;2022-07-26T02:40:05;97537.31;;;22.05;65.42
55066;BME280;40964;42.114;24.220;2022-07-26T02:42:31;97535.03;;;21.98;65.06
55066;BME280;40964;42.114;24.220;2022-07-26T02:44:57;97537.09;;;22.01;65.03
55066;BME280;40964;42.114;24.220;2022-07-26T02:47:23;97543.84;;;21.99;66.27
55066;BME280;40964;42.114;24.220;2022-07-26T02:49:48;97541.84;;;21.91;66.24
55066;BME280;40964;42.114;24.220;2022-07-26T02:52:14;97545.44;;;21.86;66.25
55066;BME280;40964;42.114;24.220;2022-07-26T02:54:39;97536.19;;;21.78;66.41
55066;BME280;40964;42.114;24.220;2022-07-26T02:57:05;97537.66;;;21.71;67.14
55066;BME280;40964;42.114;24.220;2022-07-26T02:59:30;97552.16;;;21.70;67.26
55066;BME280;40964;42.114;24.220;2022-07-26T03:01:56;97554.34;;;21.68;68.75
55066;BME280;40964;42.114;24.220;2022-07-26T03:04:22;97545.59;;;21.62;68.70
55066;BME280;40964;42.114;24.220;2022-07-26T03:06:48;97559.75;;;21.63;69.67
55066;BME280;40964;42.114;24.220;2022-07-26T03:09:13;97557.69;;;21.60;69.98
55066;BME280;40964;42.114;24.220;2022-07-26T03:11:39;97554.22;;;21.59;69.41
55066;BME280;40964;42.114;24.220;2022-07-26T03:14:04;97559.06;;;21.57;69.65
55066;BME280;40964;42.114;24.220;2022-07-26T03:16:30;97561.75;;;21.57;69.56
55066;BME280;40964;42.114;24.220;2022-07-26T03:18:56;97560.06;;;21.61;68.11
55066;BME280;40964;42.114;24.220;2022-07-26T03:21:21;97569.38;;;21.64;67.96
55066;BME280;40964;42.114;24.220;2022-07-26T03:23:47;97535.13;;;21.47;67.85
55066;BME280;40964;42.114;24.220;2022-07-26T03:26:12;97570.69;;;21.66;67.89
55066;BME280;40964;42.114;24.220;2022-07-26T03:28:38;97572.56;;;21.66;67.45
55066;BME280;40964;42.114;24.220;2022-07-26T03:31:06;97578.41;;;21.68;66.91
55066;BME280;40964;42.114;24.220;2022-07-26T03:33:32;97580.19;;;21.59;67.49
55066;BME280;40964;42.114;24.220;2022-07-26T03:35:57;97578.38;;;21.54;68.62
55066;BME280;40964;42.114;24.220;2022-07-26T03:38:23;97579.09;;;21.60;68.09
55066;BME280;40964;42.114;24.220;2022-07-26T03:40:49;97583.47;;;21.69;68.46
55066;BME280;40964;42.114;24.220;2022-07-26T03:43:15;97576.72;;;21.72;69.99
55066;BME280;40964;42.114;24.220;2022-07-26T03:45:41;97578.84;;;21.75;69.92
55066;BME280;40964;42.114;24.220;2022-07-26T03:48:07;97575.63;;;21.73;68.96
55066;BME280;40964;42.114;24.220;2022-07-26T03:50:32;97580.63;;;21.79;68.84
55066;BME280;40964;42.114;24.220;2022-07-26T03:52:58;97578.06;;;21.88;69.00
55066;BME280;40964;42.114;24.220;2022-07-26T03:55:24;97574.78;;;21.91;68.69
55066;BME280;40964;42.114;24.220;2022-07-26T03:58:08;97580.38;;;21.95;68.90
55066;BME280;40964;42.114;24.220;2022-07-26T04:00:33;97574.09;;;21.99;68.54
55066;BME280;40964;42.114;24.220;2022-07-26T04:02:59;97555.84;;;22.01;68.69
55066;BME280;40964;42.114;24.220;2022-07-26T04:05:24;97550.22;;;22.03;68.39
55066;BME280;40964;42.114;24.220;2022-07-26T04:07:53;97563.66;;;22.17;67.84
55066;BME280;40964;42.114;24.220;2022-07-26T04:10:20;97564.75;;;22.29;67.64
55066;BME280;40964;42.114;24.220;2022-07-26T04:12:46;97560.78;;;22.41;67.58
55066;BME280;40964;42.114;24.220;2022-07-26T04:15:12;97562.53;;;22.45;67.30
55066;BME280;40964;42.114;24.220;2022-07-26T04:17:40;97561.28;;;22.56;68.61
55066;BME280;40964;42.114;24.220;2022-07-26T04:20:08;97551.72;;;22.64;68.65
55066;BME280;40964;42.114;24.220;2022-07-26T04:22:34;97560.34;;;22.75;68.66
55066;BME280;40964;42.114;24.220;2022-07-26T04:25:00;97552.66;;;22.82;67.55
55066;BME280;40964;42.114;24.220;2022-07-26T04:27:26;97554.00;;;22.84;67.59
55066;BME280;40964;42.114;24.220;2022-07-26T04:29:52;97561.50;;;22.96;67.90
55066;BME280;40964;42.114;24.220;2022-07-26T04:32:17;97555.53;;;22.99;68.07
55066;BME280;40964;42.114;24.220;2022-07-26T04:34:43;97557.31;;;23.04;66.04
55066;BME280;40964;42.114;24.220;2022-07-26T04:37:08;97554.72;;;23.12;65.64
55066;BME280;40964;42.114;24.220;2022-07-26T04:39:34;97555.56;;;23.21;65.46
55066;BME280;40964;42.114;24.220;2022-07-26T04:41:59;97556.75;;;23.29;65.53
55066;BME280;40964;42.114;24.220;2022-07-26T04:44:25;97555.72;;;23.39;65.81
55066;BME280;40964;42.114;24.220;2022-07-26T04:46:50;97557.03;;;23.50;67.15
55066;BME280;40964;42.114;24.220;2022-07-26T04:49:16;97566.69;;;23.51;64.96
55066;BME280;40964;42.114;24.220;2022-07-26T04:51:56;97558.59;;;23.65;65.26
55066;BME280;40964;42.114;24.220;2022-07-26T04:54:23;97566.81;;;23.68;64.13
55066;BME280;40964;42.114;24.220;2022-07-26T04:56:49;97553.09;;;23.70;63.24
55066;BME280;40964;42.114;24.220;2022-07-26T04:59:15;97563.22;;;23.73;64.42
55066;BME280;40964;42.114;24.220;2022-07-26T05:01:42;97560.97;;;23.66;64.24
55066;BME280;40964;42.114;24.220;2022-07-26T05:04:07;97559.56;;;23.69;64.94
55066;BME280;40964;42.114;24.220;2022-07-26T05:06:33;97565.56;;;23.52;64.06
55066;BME280;40964;42.114;24.220;2022-07-26T05:08:58;97561.44;;;23.46;64.20
55066;BME280;40964;42.114;24.220;2022-07-26T05:11:24;97556.94;;;23.55;64.54
55066;BME280;40964;42.114;24.220;2022-07-26T05:13:50;97545.63;;;23.44;63.17
55066;BME280;40964;42.114;24.220;2022-07-26T05:16:15;97551.50;;;23.46;63.75
55066;BME280;40964;42.114;24.220;2022-07-26T05:18:41;97549.25;;;23.62;64.79
55066;BME280;40964;42.114;24.220;2022-07-26T05:21:07;97551.69;;;23.72;63.88
55066;BME280;40964;42.114;24.220;2022-07-26T05:23:32;97549.13;;;23.98;63.50
55066;BME280;40964;42.114;24.220;2022-07-26T05:25:58;97556.19;;;24.25;61.89
55066;BME280;40964;42.114;24.220;2022-07-26T05:28:23;97555.75;;;24.32;60.22
55066;BME280;40964;42.114;24.220;2022-07-26T05:30:49;97558.47;;;24.32;60.42
55066;BME280;40964;42.114;24.220;2022-07-26T05:33:15;97551.06;;;24.46;60.30
55066;BME280;40964;42.114;24.220;2022-07-26T05:35:41;97546.97;;;24.57;60.66
55066;BME280;40964;42.114;24.220;2022-07-26T05:38:06;97540.50;;;24.67;60.39
55066;BME280;40964;42.114;24.220;2022-07-26T05:40:32;97546.84;;;24.88;59.26
55066;BME280;40964;42.114;24.220;2022-07-26T05:42:57;97538.38;;;25.04;60.74
55066;BME280;40964;42.114;24.220;2022-07-26T05:45:23;97543.41;;;25.31;58.14
55066;BME280;40964;42.114;24.220;2022-07-26T05:47:52;97554.94;;;25.58;58.29
55066;BME280;40964;42.114;24.220;2022-07-26T05:50:18;97557.31;;;25.77;57.42
55066;BME280;40964;42.114;24.220;2022-07-26T05:52:44;97547.94;;;25.91;55.77
55066;BME280;40964;42.114;24.220;2022-07-26T05:55:09;97550.47;;;25.88;55.70
55066;BME280;40964;42.114;24.220;2022-07-26T05:57:35;97554.28;;;25.78;56.26
55066;BME280;40964;42.114;24.220;2022-07-26T06:00:00;97559.88;;;25.56;55.46
55066;BME280;40964;42.114;24.220;2022-07-26T06:02:26;97552.44;;;25.44;56.40
55066;BME280;40964;42.114;24.220;2022-07-26T06:04:51;97556.19;;;25.69;56.37
55066;BME280;40964;42.114;24.220;2022-07-26T06:07:17;97558.53;;;25.88;55.95
55066;BME280;40964;42.114;24.220;2022-07-26T06:09:43;97560.53;;;26.17;56.56
55066;BME280;40964;42.114;24.220;2022-07-26T06:12:08;97551.81;;;26.49;55.37
55066;BME280;40964;42.114;24.220;2022-07-26T06:14:34;97546.97;;;26.64;54.03
55066;BME280;40964;42.114;24.220;2022-07-26T06:17:00;97542.19;;;26.90;53.69
55066;BME280;40964;42.114;24.220;2022-07-26T06:19:27;97545.53;;;27.17;52.24
55066;BME280;40964;42.114;24.220;2022-07-26T06:24:28;97537.56;;;27.53;49.73
55066;BME280;40964;42.114;24.220;2022-07-26T06:26:54;97529.88;;;27.76;50.53
55066;BME280;40964;42.114;24.220;2022-07-26T06:29:21;97532.03;;;27.83;50.73
55066;BME280;40964;42.114;24.220;2022-07-26T06:31:47;97527.72;;;27.69;49.99
55066;BME280;40964;42.114;24.220;2022-07-26T06:34:13;97527.53;;;27.87;50.10
55066;BME280;40964;42.114;24.220;2022-07-26T06:36:38;97527.75;;;27.82;49.70
55066;BME280;40964;42.114;24.220;2022-07-26T06:39:04;97529.59;;;28.14;49.47
55066;BME280;40964;42.114;24.220;2022-07-26T06:41:30;97505.25;;;28.39;49.15
55066;BME280;40964;42.114;24.220;2022-07-26T06:43:55;97509.41;;;28.48;48.66
55066;BME280;40964;42.114;24.220;2022-07-26T06:46:21;97514.47;;;28.62;48.16
55066;BME280;40964;42.114;24.220;2022-07-26T06:48:48;97508.06;;;28.54;47.60
55066;BME280;40964;42.114;24.220;2022-07-26T06:51:13;97510.31;;;28.28;47.48
55066;BME280;40964;42.114;24.220;2022-07-26T06:53:39;97508.75;;;28.51;47.28
55066;BME280;40964;42.114;24.220;2022-07-26T06:56:05;97510.41;;;28.56;46.62
55066;BME280;40964;42.114;24.220;2022-07-26T06:58:30;97512.41;;;28.83;46.90
55066;BME280;40964;42.114;24.220;2022-07-26T07:00:56;97509.25;;;28.94;45.86
55066;BME280;40964;42.114;24.220;2022-07-26T07:03:22;97514.03;;;29.13;46.00
55066;BME280;40964;42.114;24.220;2022-07-26T07:05:47;97505.72;;;29.33;45.68
55066;BME280;40964;42.114;24.220;2022-07-26T07:08:13;97512.63;;;29.75;47.08
55066;BME280;40964;42.114;24.220;2022-07-26T07:10:39;97505.97;;;29.88;44.08
55066;BME280;40964;42.114;24.220;2022-07-26T07:13:05;97523.38;;;29.71;44.49
55066;BME280;40964;42.114;24.220;2022-07-26T07:15:30;97515.31;;;29.31;46.38
55066;BME280;40964;42.114;24.220;2022-07-26T07:17:56;97510.34;;;29.05;46.21
55066;BME280;40964;42.114;24.220;2022-07-26T07:20:22;97515.56;;;29.26;46.55
55066;BME280;40964;42.114;24.220;2022-07-26T07:22:47;97508.31;;;29.58;46.32
55066;BME280;40964;42.114;24.220;2022-07-26T07:25:13;97512.31;;;29.48;45.92
55066;BME280;40964;42.114;24.220;2022-07-26T07:27:39;97512.34;;;29.64;45.45
55066;BME280;40964;42.114;24.220;2022-07-26T07:30:05;97524.00;;;29.80;45.06
55066;BME280;40964;42.114;24.220;2022-07-26T07:32:31;97516.06;;;30.19;45.57
55066;BME280;40964;42.114;24.220;2022-07-26T07:34:56;97517.16;;;30.49;43.77
55066;BME280;40964;42.114;24.220;2022-07-26T07:37:22;97514.63;;;30.41;45.62
55066;BME280;40964;42.114;24.220;2022-07-26T07:39:48;97518.31;;;30.33;43.68
55066;BME280;40964;42.114;24.220;2022-07-26T07:42:13;97508.72;;;30.55;43.48
55066;BME280;40964;42.114;24.220;2022-07-26T07:44:39;97517.94;;;30.66;42.84
55066;BME280;40964;42.114;24.220;2022-07-26T07:47:06;97515.34;;;30.73;44.08
55066;BME280;40964;42.114;24.220;2022-07-26T07:49:33;97507.38;;;30.80;44.08
55066;BME280;40964;42.114;24.220;2022-07-26T07:51:59;97509.94;;;30.73;47.20
55066;BME280;40964;42.114;24.220;2022-07-26T07:54:25;97503.50;;;30.46;45.06
55066;BME280;40964;42.114;24.220;2022-07-26T07:56:50;97512.66;;;30.22;43.35
55066;BME280;40964;42.114;24.220;2022-07-26T07:59:17;97504.00;;;30.16;44.38
55066;BME280;40964;42.114;24.220;2022-07-26T08:01:42;97496.31;;;30.53;43.65
55066;BME280;40964;42.114;24.220;2022-07-26T08:04:08;97498.38;;;30.76;43.82
55066;BME280;40964;42.114;24.220;2022-07-26T08:06:34;97487.47;;;30.57;43.11
55066;BME280;40964;42.114;24.220;2022-07-26T08:09:00;97490.53;;;31.10;42.67
55066;BME280;40964;42.114;24.220;2022-07-26T08:11:26;97493.13;;;31.22;41.61
55066;BME280;40964;42.114;24.220;2022-07-26T08:13:52;97492.03;;;31.46;41.23
55066;BME280;40964;42.114;24.220;2022-07-26T08:16:17;97481.84;;;31.43;42.22
55066;BME280;40964;42.114;24.220;2022-07-26T08:18:43;97482.13;;;31.80;42.16
55066;BME280;40964;42.114;24.220;2022-07-26T08:21:09;97474.34;;;32.01;41.69
55066;BME280;40964;42.114;24.220;2022-07-26T08:23:35;97472.69;;;31.97;40.70
55066;BME280;40964;42.114;24.220;2022-07-26T08:26:00;97472.78;;;31.77;41.23
55066;BME280;40964;42.114;24.220;2022-07-26T08:28:27;97472.06;;;32.07;40.28
55066;BME280;40964;42.114;24.220;2022-07-26T08:30:53;97472.56;;;31.89;41.38
55066;BME280;40964;42.114;24.220;2022-07-26T08:33:18;97476.28;;;32.01;41.40
55066;BME280;40964;42.114;24.220;2022-07-26T08:35:44;97479.69;;;32.20;40.19
55066;BME280;40964;42.114;24.220;2022-07-26T08:38:10;97474.53;;;32.15;41.30
55066;BME280;40964;42.114;24.220;2022-07-26T08:40:38;97466.84;;;32.21;41.03
55066;BME280;40964;42.114;24.220;2022-07-26T08:43:03;97475.50;;;32.00;40.82
55066;BME280;40964;42.114;24.220;2022-07-26T08:45:30;97467.00;;;31.59;41.34
55066;BME280;40964;42.114;24.220;2022-07-26T08:47:56;97471.50;;;31.94;40.13
55066;BME280;40964;42.114;24.220;2022-07-26T08:50:23;97467.16;;;32.39;41.87
55066;BME280;40964;42.114;24.220;2022-07-26T08:52:50;97462.41;;;32.62;40.02
55066;BME280;40964;42.114;24.220;2022-07-26T08:55:19;97459.97;;;32.54;39.60
55066;BME280;40964;42.114;24.220;2022-07-26T08:57:46;97465.56;;;32.64;40.85
55066;BME280;40964;42.114;24.220;2022-07-26T09:00:27;97466.06;;;33.07;39.76
55066;BME280;40964;42.114;24.220;2022-07-26T09:03:00;97457.53;;;33.42;38.35
55066;BME280;40964;42.114;24.220;2022-07-26T09:05:34;97456.34;;;33.06;39.31
55066;BME280;40964;42.114;24.220;2022-07-26T09:08:21;97459.03;;;32.72;38.99
55066;BME280;40964;42.114;24.220;2022-07-26T09:10:47;97453.31;;;32.81;40.20
55066;BME280;40964;42.114;24.220;2022-07-26T09:13:12;97452.75;;;32.68;39.82
55066;BME280;40964;42.114;24.220;2022-07-26T09:15:38;97445.41;;;33.02;39.32
55066;BME280;40964;42.114;24.220;2022-07-26T09:18:04;97460.59;;;33.37;38.55
55066;BME280;40964;42.114;24.220;2022-07-26T09:20:30;97442.78;;;33.50;38.38
55066;BME280;40964;42.114;24.220;2022-07-26T09:23:08;97437.78;;;33.52;37.56
55066;BME280;40964;42.114;24.220;2022-07-26T09:25:35;97444.81;;;33.57;38.00
55066;BME280;40964;42.114;24.220;2022-07-26T09:28:02;97448.78;;;33.63;37.38
55066;BME280;40964;42.114;24.220;2022-07-26T09:30:30;97438.88;;;33.48;38.16
55066;BME280;40964;42.114;24.220;2022-07-26T09:33:06;97445.75;;;33.35;37.86
55066;BME280;40964;42.114;24.220;2022-07-26T09:35:35;97445.03;;;33.38;38.22
55066;BME280;40964;42.114;24.220;2022-07-26T09:38:14;97437.94;;;33.70;38.11
55066;BME280;40964;42.114;24.220;2022-07-26T09:40:39;97434.72;;;34.09;37.27
55066;BME280;40964;42.114;24.220;2022-07-26T09:43:05;97435.00;;;33.97;36.70
55066;BME280;40964;42.114;24.220;2022-07-26T09:45:33;97432.28;;;33.93;36.97
55066;BME280;40964;42.114;24.220;2022-07-26T09:48:00;97430.50;;;34.15;36.69
55066;BME280;40964;42.114;24.220;2022-07-26T09:50:32;97430.94;;;34.24;36.78
55066;BME280;40964;42.114;24.220;2022-07-26T09:55:27;97428.28;;;33.83;37.20
55066;BME280;40964;42.114;24.220;2022-07-26T09:57:53;97418.84;;;33.70;38.32
55066;BME280;40964;42.114;24.220;2022-07-26T10:00:19;97423.13;;;33.71;36.88
55066;BME280;40964;42.114;24.220;2022-07-26T10:02:44;97417.00;;;33.41;37.42
55066;BME280;40964;42.114;24.220;2022-07-26T10:05:10;97419.22;;;33.72;37.10
55066;BME280;40964;42.114;24.220;2022-07-26T10:07:36;97408.56;;;33.53;36.75
55066;BME280;40964;42.114;24.220;2022-07-26T10:10:06;97415.16;;;33.52;36.75
55066;BME280;40964;42.114;24.220;2022-07-26T10:12:33;97403.31;;;33.81;35.77
55066;BME280;40964;42.114;24.220;2022-07-26T10:14:59;97403.97;;;34.15;36.08
55066;BME280;40964;42.114;24.220;2022-07-26T10:25:56;97395.38;;;35.01;33.82
55066;BME280;40964;42.114;24.220;2022-07-26T10:28:23;97389.53;;;34.98;34.12
55066;BME280;40964;42.114;24.220;2022-07-26T10:30:50;97385.31;;;35.44;35.11
55066;BME280;40964;42.114;24.220;2022-07-26T10:33:17;97379.06;;;35.43;33.88
55066;BME280;40964;42.114;24.220;2022-07-26T10:35:46;97379.78;;;34.97;33.16
55066;BME280;40964;42.114;24.220;2022-07-26T10:38:23;97381.00;;;35.32;34.60
55066;BME280;40964;42.114;24.220;2022-07-26T10:41:05;97383.72;;;35.28;34.22
55066;BME280;40964;42.114;24.220;2022-07-26T10:43:32;97375.16;;;35.48;32.40
55066;BME280;40964;42.114;24.220;2022-07-26T10:51:29;97368.50;;;35.92;32.00
55066;BME280;40964;42.114;24.220;2022-07-26T10:54:03;97369.66;;;35.66;31.96
55066;BME280;40964;42.114;24.220;2022-07-26T10:56:29;97357.19;;;35.61;30.86
55066;BME280;40964;42.114;24.220;2022-07-26T10:58:55;97362.25;;;35.23;29.89
55066;BME280;40964;42.114;24.220;2022-07-26T11:01:21;97359.50;;;35.16;31.31
55066;BME280;40964;42.114;24.220;2022-07-26T11:03:46;97358.69;;;35.09;31.23
55066;BME280;40964;42.114;24.220;2022-07-26T11:06:16;97344.59;;;34.92;29.83
55066;BME280;40964;42.114;24.220;2022-07-26T11:08:44;97345.81;;;35.16;32.58
55066;BME280;40964;42.114;24.220;2022-07-26T11:11:11;97339.22;;;35.60;31.70
55066;BME280;40964;42.114;24.220;2022-07-26T11:13:37;97332.91;;;35.74;27.69
55066;BME280;40964;42.114;24.220;2022-07-26T11:16:07;97333.59;;;36.21;24.53
55066;BME280;40964;42.114;24.220;2022-07-26T11:18:35;97325.38;;;36.21;28.76
55066;BME280;40964;42.114;24.220;2022-07-26T11:21:10;97330.97;;;35.89;27.91
55066;BME280;40964;42.114;24.220;2022-07-26T11:23:37;97317.69;;;35.73;28.60
55066;BME280;40964;42.114;24.220;2022-07-26T11:28:58;97313.41;;;35.61;26.33
55066;BME280;40964;42.114;24.220;2022-07-26T11:31:38;97307.97;;;35.50;27.92
55066;BME280;40964;42.114;24.220;2022-07-26T11:34:05;97303.63;;;35.07;28.77
55066;BME280;40964;42.114;24.220;2022-07-26T11:36:32;97298.94;;;34.96;25.91
55066;BME280;40964;42.114;24.220;2022-07-26T11:38:58;97301.66;;;34.93;26.89
55066;BME280;40964;42.114;24.220;2022-07-26T11:41:26;97303.22;;;35.22;27.42
55066;BME280;40964;42.114;24.220;2022-07-26T11:43:53;97298.56;;;35.41;27.09
55066;BME280;40964;42.114;24.220;2022-07-26T11:46:20;97295.75;;;35.98;28.77
55066;BME280;40964;42.114;24.220;2022-07-26T11:48:51;97290.97;;;36.20;26.07
55066;BME280;40964;42.114;24.220;2022-07-26T11:51:21;97291.03;;;36.05;25.34
55066;BME280;40964;42.114;24.220;2022-07-26T11:53:48;97282.09;;;35.76;26.00
55066;BME280;40964;42.114;24.220;2022-07-26T11:56:20;97288.38;;;35.66;26.93
55066;BME280;40964;42.114;24.220;2022-07-26T11:58:48;97270.34;;;35.83;26.50
55066;BME280;40964;42.114;24.220;2022-07-26T12:01:16;97281.75;;;35.57;26.42
55066;BME280;40964;42.114;24.220;2022-07-26T12:03:48;97274.72;;;35.55;27.23
55066;BME280;40964;42.114;24.220;2022-07-26T12:06:15;97279.78;;;35.71;26.69
55066;BME280;40964;42.114;24.220;2022-07-26T12:08:47;97269.56;;;35.97;26.52
55066;BME280;40964;42.114;24.220;2022-07-26T12:11:14;97269.56;;;35.82;26.81
55066;BME280;40964;42.114;24.220;2022-07-26T12:14:00;97260.50;;;36.14;27.29
55066;BME280;40964;42.114;24.220;2022-07-26T12:16:55;97262.78;;;36.26;27.80
55066;BME280;40964;42.114;24.220;2022-07-26T12:21:53;97256.88;;;36.35;26.95
55066;BME280;40964;42.114;24.220;2022-07-26T12:24:40;97251.91;;;36.85;27.75
55066;BME280;40964;42.114;24.220;2022-07-26T12:27:26;97237.94;;;36.62;27.15
55066;BME280;40964;42.114;24.220;2022-07-26T12:29:52;97234.66;;;36.81;27.51
55066;BME280;40964;42.114;24.220;2022-07-26T12:32:27;97233.88;;;36.88;27.23
55066;BME280;40964;42.114;24.220;2022-07-26T12:35:03;97227.88;;;37.00;26.81
55066;BME280;40964;42.114;24.220;2022-07-26T12:37:30;97230.63;;;37.00;27.28
55066;BME280;40964;42.114;24.220;2022-07-26T12:42:33;97225.81;;;37.15;26.61
55066;BME280;40964;42.114;24.220;2022-07-26T12:44:59;97235.56;;;36.64;27.06
55066;BME280;40964;42.114;24.220;2022-07-26T12:47:25;97227.09;;;36.44;27.20
55066;BME280;40964;42.114;24.220;2022-07-26T12:49:51;97226.00;;;36.31;28.13
55066;BME280;40964;42.114;24.220;2022-07-26T12:52:18;97224.47;;;36.23;27.13
55066;BME280;40964;42.114;24.220;2022-07-26T12:54:46;97225.69;;;36.15;27.81
55066;BME280;40964;42.114;24.220;2022-07-26T12:57:13;97213.19;;;36.14;27.56
55066;BME280;40964;42.114;24.220;2022-07-26T12:59:38;97217.78;;;36.27;27.87
55066;BME280;40964;42.114;24.220;2022-07-26T13:02:05;97217.44;;;36.81;28.98
55066;BME280;40964;42.114;24.220;2022-07-26T13:04:32;97215.09;;;37.31;27.16
55066;BME280;40964;42.114;24.220;2022-07-26T13:06:58;97210.50;;;37.59;26.60
55066;BME280;40964;42.114;24.220;2022-07-26T13:09:23;97206.25;;;37.09;26.26
55066;BME280;40964;42.114;24.220;2022-07-26T13:11:49;97205.53;;;37.05;28.21
55066;BME280;40964;42.114;24.220;2022-07-26T13:14:15;97197.78;;;36.97;27.56
55066;BME280;40964;42.114;24.220;2022-07-26T13:16:41;97201.56;;;37.10;26.84